createdAt,value
2019-05-25T00:00:15.468Z,1012.29
2019-05-25T00:01:21.077Z,1012.28
2019-05-25T00:02:26.563Z,1012.30
2019-05-25T00:03:32.119Z,1012.29
2019-05-25T00:04:37.666Z,1012.28
2019-05-25T00:05:43.223Z,1012.29
2019-05-25T00:06:48.780Z,1012.32
2019-05-25T00:07:54.355Z,1012.32
2019-05-25T00:08:59.877Z,1012.33
2019-05-25T00:10:06.470Z,1012.32
2019-05-25T00:11:10.980Z,1012.33
2019-05-25T00:12:16.524Z,1012.38
2019-05-25T00:13:22.126Z,1012.36
2019-05-25T00:14:27.629Z,1012.37
2019-05-25T00:15:33.376Z,1012.38
2019-05-25T00:16:38.727Z,1012.38
2019-05-25T00:17:44.282Z,1012.41
2019-05-25T00:18:49.832Z,1012.41
2019-05-25T00:19:55.432Z,1012.43
2019-05-25T00:21:00.932Z,1012.42
2019-05-25T00:22:06.480Z,1012.46
2019-05-25T00:23:12.028Z,1012.47
2019-05-25T00:24:17.580Z,1012.46
2019-05-25T00:25:23.144Z,1012.46
2019-05-25T00:26:28.702Z,1012.46
2019-05-25T00:27:34.906Z,1012.44
2019-05-25T00:28:43.488Z,1012.47
2019-05-25T00:29:45.337Z,1012.46
2019-05-25T00:30:50.922Z,1012.50
2019-05-25T00:31:56.446Z,1012.52
2019-05-25T00:33:01.998Z,1012.46
2019-05-25T00:34:07.536Z,1012.45
2019-05-25T00:35:13.090Z,1012.44
2019-05-25T00:36:18.641Z,1012.45
2019-05-25T00:37:24.192Z,1012.44
2019-05-25T00:38:30.411Z,1012.48
2019-05-25T00:39:35.291Z,1012.48
2019-05-25T00:40:40.842Z,1012.43
2019-05-25T00:41:46.392Z,1012.46
2019-05-25T00:42:51.958Z,1012.46
2019-05-25T00:43:57.495Z,1012.46
2019-05-25T00:45:03.052Z,1012.44
2019-05-25T00:46:08.596Z,1012.44
2019-05-25T00:47:14.145Z,1012.45
2019-05-25T00:48:19.703Z,1012.44
2019-05-25T00:49:25.330Z,1012.45
2019-05-25T00:50:30.804Z,1012.44
2019-05-25T00:51:36.356Z,1012.48
2019-05-25T00:52:41.899Z,1012.53
2019-05-25T00:53:47.453Z,1012.51
2019-05-25T00:54:52.998Z,1012.50
2019-05-25T00:55:58.556Z,1012.51
2019-05-25T00:57:04.100Z,1012.51
2019-05-25T00:58:09.666Z,1012.50
2019-05-25T00:59:15.206Z,1012.50
2019-05-25T01:00:20.796Z,1012.51
2019-05-25T01:01:26.926Z,1012.46
2019-05-25T01:02:33.443Z,1012.53
2019-05-25T01:03:37.411Z,1012.52
2019-05-25T01:04:42.957Z,1012.54
2019-05-25T01:05:48.513Z,1012.55
2019-05-25T01:06:54.057Z,1012.51
2019-05-25T01:07:59.607Z,1012.51
2019-05-25T01:09:05.165Z,1012.55
2019-05-25T01:10:10.721Z,1012.53
2019-05-25T01:11:16.307Z,1012.56
2019-05-25T01:12:21.815Z,1012.55
2019-05-25T01:13:27.366Z,1012.57
2019-05-25T01:14:33.479Z,1012.56
2019-05-25T01:15:38.527Z,1012.57
2019-05-25T01:16:44.029Z,1012.54
2019-05-25T01:17:49.578Z,1012.60
2019-05-25T01:18:55.131Z,1012.58
2019-05-25T01:20:00.828Z,1012.57
2019-05-25T01:21:06.216Z,1012.58
2019-05-25T01:22:11.774Z,1012.56
2019-05-25T01:23:17.323Z,1012.58
2019-05-25T01:24:22.908Z,1012.58
2019-05-25T01:25:28.424Z,1012.57
2019-05-25T01:26:33.979Z,1012.59
2019-05-25T01:27:39.520Z,1012.57
2019-05-25T01:28:45.068Z,1012.56
2019-05-25T01:29:50.630Z,1012.55
2019-05-25T01:30:56.184Z,1012.56
2019-05-25T01:32:01.728Z,1012.56
2019-05-25T01:33:07.278Z,1012.56
2019-05-25T01:34:12.830Z,1012.55
2019-05-25T01:35:18.379Z,1012.52
2019-05-25T01:36:23.922Z,1012.55
2019-05-25T01:37:29.484Z,1012.52
2019-05-25T01:38:35.025Z,1012.53
2019-05-25T01:39:40.593Z,1012.55
2019-05-25T01:40:46.131Z,1012.53
2019-05-25T01:41:51.675Z,1012.57
2019-05-25T01:42:57.936Z,1012.56
2019-05-25T01:44:02.792Z,1012.59
2019-05-25T01:45:08.979Z,1012.57
2019-05-25T01:46:13.900Z,1012.59
2019-05-25T01:47:19.429Z,1012.56
2019-05-25T01:48:24.998Z,1012.59
2019-05-25T01:49:30.531Z,1012.58
2019-05-25T01:50:36.086Z,1012.55
2019-05-25T01:51:41.637Z,1012.57
2019-05-25T01:52:47.185Z,1012.55
2019-05-25T01:53:52.736Z,1012.56
2019-05-25T01:55:00.234Z,1012.56
2019-05-25T01:56:03.838Z,1012.60
2019-05-25T01:57:09.385Z,1012.57
2019-05-25T01:58:14.936Z,1012.58
2019-05-25T01:59:21.435Z,1012.57
2019-05-25T02:00:26.039Z,1012.60
2019-05-25T02:01:32.489Z,1012.60
2019-05-25T02:04:21.946Z,1012.58
2019-05-25T02:05:27.430Z,1012.55
2019-05-25T02:07:27.623Z,1012.54
2019-05-25T02:08:33.153Z,1012.53
2019-05-25T02:14:08.200Z,1012.54
2019-05-25T02:15:13.671Z,1012.54
2019-05-25T02:16:19.222Z,1012.57
2019-05-25T02:17:24.766Z,1012.55
2019-05-25T02:18:30.314Z,1012.54
2019-05-25T02:21:09.029Z,1012.57
2019-05-25T02:22:14.552Z,1012.60
2019-05-25T02:24:13.523Z,1012.58
2019-05-25T02:25:19.177Z,1012.55
2019-05-25T02:27:18.995Z,1012.57
2019-05-25T02:28:25.101Z,1012.56
2019-05-25T02:30:24.513Z,1012.54
2019-05-25T02:31:30.031Z,1012.54
2019-05-25T02:33:30.046Z,1012.56
2019-05-25T02:34:35.528Z,1012.55
2019-05-25T02:36:35.495Z,1012.59
2019-05-25T02:37:41.017Z,1012.57
2019-05-25T02:41:21.905Z,1012.55
2019-05-25T02:42:28.342Z,1012.56
2019-05-25T02:43:32.912Z,1012.58
2019-05-25T02:44:38.475Z,1012.58
2019-05-25T02:45:44.007Z,1012.62
2019-05-25T02:46:49.557Z,1012.60
2019-05-25T02:47:55.192Z,1012.59
2019-05-25T02:49:00.665Z,1012.61
2019-05-25T02:50:06.210Z,1012.62
2019-05-25T02:51:11.760Z,1012.63
2019-05-25T02:52:17.311Z,1012.62
2019-05-25T02:53:22.924Z,1012.64
2019-05-25T02:54:28.437Z,1012.66
2019-05-25T02:55:35.138Z,1012.63
2019-05-25T02:56:39.500Z,1012.64
2019-05-25T02:57:45.052Z,1012.65
2019-05-25T02:58:50.601Z,1012.65
2019-05-25T02:59:56.841Z,1012.64
2019-05-25T03:01:01.709Z,1012.64
2019-05-25T03:02:07.380Z,1012.65
2019-05-25T03:03:12.805Z,1012.70
2019-05-25T03:04:18.525Z,1012.71
2019-05-25T03:05:24.844Z,1012.73
2019-05-25T03:06:48.517Z,1012.69
2019-05-25T03:07:35.000Z,1012.71
2019-05-25T03:08:40.552Z,1012.71
2019-05-25T03:09:46.105Z,1012.72
2019-05-25T03:10:51.652Z,1012.71
2019-05-25T03:11:57.870Z,1012.68
2019-05-25T03:13:02.751Z,1012.67
2019-05-25T03:14:08.302Z,1012.67
2019-05-25T03:15:13.867Z,1012.69
2019-05-25T03:16:19.407Z,1012.71
2019-05-25T03:17:24.956Z,1012.65
2019-05-25T03:18:30.508Z,1012.68
2019-05-25T03:19:36.054Z,1012.68
2019-05-25T03:20:42.247Z,1012.66
2019-05-25T03:21:47.158Z,1012.70
2019-05-25T03:22:52.707Z,1012.68
2019-05-25T03:23:58.256Z,1012.73
2019-05-25T03:25:03.872Z,1012.71
2019-05-25T03:26:09.355Z,1012.72
2019-05-25T03:27:14.908Z,1012.73
2019-05-25T03:28:20.463Z,1012.72
2019-05-25T03:29:26.012Z,1012.75
2019-05-25T03:30:31.567Z,1012.75
2019-05-25T03:31:37.833Z,1012.71
2019-05-25T03:32:42.656Z,1012.71
2019-05-25T03:33:48.213Z,1012.76
2019-05-25T03:34:53.833Z,1012.76
2019-05-25T03:35:59.315Z,1012.80
2019-05-25T03:37:04.869Z,1012.77
2019-05-25T03:38:10.417Z,1012.82
